North Kingstown, Rhode Island
Current Conditions -  °F | °C
As of 8:33 PM on Wednesday 22 Oct 2014 (Local Time) from KUUU Reporting Station
Thunderstorm Thunderstorm  
Wind Chill: 57°   Ceiling: 600
Heat Index: 57°   Visibility: 2.5mi
Dew Point: 53°   Wind: 28mph
Humidity: 87%   Direction: 40°NE
Pressure: 29.67"   Gusts: 38mph
Location:  41.6°N, 71.42°W
Report Text: KUUU 230033Z AUTO 04024G33KT 2 1/2SM TSRA BR BKN006 OVC011 14/12 A2967 RMK AO2 PK WND 02039/0021 LTG DSNT SE-SW TSB33 CIG 005V009 P0010 T01390117
Loading
Personal Weather Stations






























Interactive Weather Map
Tropical Storm Tracking
New forecast layout! Learn more

10-Day Weather Forecast

Advertisements
Track Severe Weather on mobile